Summerwind — WDF3461 — position and weather

sailwx.info

Track history (hours):
 
Tides and Currents Weather Stations Pressure Air Temp Water Temp Dewpoint Dewpoint Depression Visibility Wind Speed Wind Dir Waves Ship Positions

Summerwind (United States)

Ship's website: http://www.usmma.edu/waterfront

More information available from US FCC via Universal Licensing System and Coast Guard Vessel Documentation Center.

Last reported at 2014-Jul-30 13:17 UTC. Time now 2014-Aug-02 08:46 UTC.
Position N 41°29' W 071°20'.

Length 30 m.

Type: Sailing vessel. MMSI: 367440150.

Date/timePositionNaut miles runAvg speedWind from/ knotsBaromVisibWave heightAir tempDewpointWater temp
2014-Jul-30 13:17N 41°29' W 071°20'1 0.7
2014-Jul-30 12:33N 41°29' W 071°19'  
2014-Jul-26 17:28N 41°29' W 071°19'2 2.6
2014-Jul-26 16:30N 41°28' W 071°22'7 7.4
2014-Jul-26 15:33N 41°22' W 071°27'8 7.4
2014-Jul-26 14:33N 41°16' W 071°34'5 5.1
2014-Jul-26 13:32N 41°11' W 071°35'0 0.0
2014-Jul-26 12:32N 41°11' W 071°35'0 0.5
2014-Jul-26 11:33N 41°12' W 071°35'0 0.0
2014-Jul-26 10:33N 41°12' W 071°35'0 0.0
2014-Jul-26 09:33N 41°12' W 071°35'0 0.0
2014-Jul-26 08:33N 41°12' W 071°35'0 0.0
2014-Jul-26 07:33N 41°12' W 071°35'0 0.0
2014-Jul-26 06:33N 41°12' W 071°35'0 0.1
2014-Jul-26 05:33N 41°11' W 071°35'0 0.1
2014-Jul-26 04:33N 41°11' W 071°35'5 5.3
2014-Jul-26 03:33N 41°09' W 071°41'8 7.6
2014-Jul-26 02:33N 41°03' W 071°48'7 7.3
2014-Jul-26 01:33N 40°57' W 071°54'7 7.4
2014-Jul-26 00:33N 40°52' W 072°01'7 7.5
2014-Jul-25 23:33N 40°47' W 072°08'8 7.7
2014-Jul-25 22:33N 40°41' W 072°14'7 7.4
2014-Jul-25 21:33N 40°35' W 072°20'  
Track history (hours):
 
Tides and Currents Weather Stations Pressure Air Temp Water Temp Dewpoint Dewpoint Depression Visibility Wind Speed Wind Dir Waves Ship Positions

Summerwind (United States)

Ship's website: http://www.usmma.edu/waterfront

More information available from US FCC via Universal Licensing System and Coast Guard Vessel Documentation Center.

Last reported at 2014-Jul-30 13:17 UTC. Time now 2014-Aug-02 08:46 UTC.
Position N 41°29' W 071°20'.

Length 30 m.

Type: Sailing vessel. MMSI: 367440150.

Date/timePositionNaut miles runAvg speedWind from/ knotsBaromVisibWave heightAir tempDewpointWater temp
2014-Jul-30 13:17N 41°29' W 071°20'1 0.7
2014-Jul-30 12:33N 41°29' W 071°19'  
2014-Jul-26 17:28N 41°29' W 071°19'2 2.6
2014-Jul-26 16:30N 41°28' W 071°22'7 7.4
2014-Jul-26 15:33N 41°22' W 071°27'8 7.4
2014-Jul-26 14:33N 41°16' W 071°34'5 5.1
2014-Jul-26 13:32N 41°11' W 071°35'0 0.0
2014-Jul-26 12:32N 41°11' W 071°35'0 0.5
2014-Jul-26 11:33N 41°12' W 071°35'0 0.0
2014-Jul-26 10:33N 41°12' W 071°35'0 0.0
2014-Jul-26 09:33N 41°12' W 071°35'0 0.0
2014-Jul-26 08:33N 41°12' W 071°35'0 0.0
2014-Jul-26 07:33N 41°12' W 071°35'0 0.0
2014-Jul-26 06:33N 41°12' W 071°35'0 0.1
2014-Jul-26 05:33N 41°11' W 071°35'0 0.1
2014-Jul-26 04:33N 41°11' W 071°35'5 5.3
2014-Jul-26 03:33N 41°09' W 071°41'8 7.6
2014-Jul-26 02:33N 41°03' W 071°48'7 7.3
2014-Jul-26 01:33N 40°57' W 071°54'7 7.4
2014-Jul-26 00:33N 40°52' W 072°01'7 7.5
2014-Jul-25 23:33N 40°47' W 072°08'8 7.7
2014-Jul-25 22:33N 40°41' W 072°14'7 7.4
2014-Jul-25 21:33N 40°35' W 072°20'  

Dump ship's entire track history